sensor_id;sensor_type;location;lat;lon;timestamp;temperature;humidity
52725;DHT22;38621;52.830;6.914;2023-07-29T00:00:42;18.10;99.90
52725;DHT22;38621;52.830;6.914;2023-07-29T00:03:09;18.10;99.90
52725;DHT22;38621;52.830;6.914;2023-07-29T00:05:36;18.10;99.90
52725;DHT22;38621;52.830;6.914;2023-07-29T00:08:02;18.00;99.90
52725;DHT22;38621;52.830;6.914;2023-07-29T00:10:27;17.90;99.90
52725;DHT22;38621;52.830;6.914;2023-07-29T00:12:53;17.90;99.90
52725;DHT22;38621;52.830;6.914;2023-07-29T00:15:19;17.90;99.90
52725;DHT22;38621;52.830;6.914;2023-07-29T00:17:44;17.80;99.90
52725;DHT22;38621;52.830;6.914;2023-07-29T00:20:10;17.80;99.90
52725;DHT22;38621;52.830;6.914;2023-07-29T00:22:36;17.80;99.90
52725;DHT22;38621;52.830;6.914;2023-07-29T00:25:02;17.80;99.90
52725;DHT22;38621;52.830;6.914;2023-07-29T00:27:27;17.80;99.90
52725;DHT22;38621;52.830;6.914;2023-07-29T00:29:53;17.70;99.90
52725;DHT22;38621;52.830;6.914;2023-07-29T00:32:19;17.80;99.90
52725;DHT22;38621;52.830;6.914;2023-07-29T00:34:44;17.90;99.90
52725;DHT22;38621;52.830;6.914;2023-07-29T00:37:10;17.90;99.90
52725;DHT22;38621;52.830;6.914;2023-07-29T00:39:36;18.00;99.90
52725;DHT22;38621;52.830;6.914;2023-07-29T00:42:05;17.90;99.90
52725;DHT22;38621;52.830;6.914;2023-07-29T00:44:31;17.90;99.90
52725;DHT22;38621;52.830;6.914;2023-07-29T00:47:01;17.90;99.90
52725;DHT22;38621;52.830;6.914;2023-07-29T00:49:28;17.90;99.90
52725;DHT22;38621;52.830;6.914;2023-07-29T00:51:53;17.90;99.90
52725;DHT22;38621;52.830;6.914;2023-07-29T00:54:19;17.90;99.90
52725;DHT22;38621;52.830;6.914;2023-07-29T00:56:45;17.90;99.90
52725;DHT22;38621;52.830;6.914;2023-07-29T00:59:11;18.00;99.90
52725;DHT22;38621;52.830;6.914;2023-07-29T01:01:37;18.00;99.90
52725;DHT22;38621;52.830;6.914;2023-07-29T01:04:04;18.00;99.90
52725;DHT22;38621;52.830;6.914;2023-07-29T01:06:46;18.00;99.90
52725;DHT22;38621;52.830;6.914;2023-07-29T01:09:33;18.00;99.90
52725;DHT22;38621;52.830;6.914;2023-07-29T01:12:24;17.90;99.90
52725;DHT22;38621;52.830;6.914;2023-07-29T01:17:32;17.90;99.90
52725;DHT22;38621;52.830;6.914;2023-07-29T01:20:07;17.90;99.90
52725;DHT22;38621;52.830;6.914;2023-07-29T01:22:35;17.90;99.90
52725;DHT22;38621;52.830;6.914;2023-07-29T01:25:01;17.80;99.90
52725;DHT22;38621;52.830;6.914;2023-07-29T01:27:27;17.80;99.90
52725;DHT22;38621;52.830;6.914;2023-07-29T01:29:53;17.80;99.90
52725;DHT22;38621;52.830;6.914;2023-07-29T01:32:29;17.70;99.90
52725;DHT22;38621;52.830;6.914;2023-07-29T01:37:52;17.70;99.90
52725;DHT22;38621;52.830;6.914;2023-07-29T01:40:19;17.70;99.90
52725;DHT22;38621;52.830;6.914;2023-07-29T01:42:45;17.70;99.90
52725;DHT22;38621;52.830;6.914;2023-07-29T01:45:11;17.70;99.90
52725;DHT22;38621;52.830;6.914;2023-07-29T01:47:37;17.70;99.90
52725;DHT22;38621;52.830;6.914;2023-07-29T01:50:06;17.70;99.90
52725;DHT22;38621;52.830;6.914;2023-07-29T01:52:32;17.60;99.90
52725;DHT22;38621;52.830;6.914;2023-07-29T01:54:58;17.60;99.90
52725;DHT22;38621;52.830;6.914;2023-07-29T01:57:24;17.60;99.90
52725;DHT22;38621;52.830;6.914;2023-07-29T01:59:49;17.60;99.90
52725;DHT22;38621;52.830;6.914;2023-07-29T02:02:15;17.60;99.90
52725;DHT22;38621;52.830;6.914;2023-07-29T02:04:40;17.60;99.90
52725;DHT22;38621;52.830;6.914;2023-07-29T02:07:06;17.60;99.90
52725;DHT22;38621;52.830;6.914;2023-07-29T02:09:32;17.60;99.90
52725;DHT22;38621;52.830;6.914;2023-07-29T02:11:58;17.60;99.90
52725;DHT22;38621;52.830;6.914;2023-07-29T02:14:24;17.60;99.90
52725;DHT22;38621;52.830;6.914;2023-07-29T02:16:49;17.50;99.90
52725;DHT22;38621;52.830;6.914;2023-07-29T02:19:15;17.50;99.90
52725;DHT22;38621;52.830;6.914;2023-07-29T02:21:41;17.50;99.90
52725;DHT22;38621;52.830;6.914;2023-07-29T02:24:07;17.40;99.90
52725;DHT22;38621;52.830;6.914;2023-07-29T02:26:32;17.40;99.90
52725;DHT22;38621;52.830;6.914;2023-07-29T02:28:58;17.30;99.90
52725;DHT22;38621;52.830;6.914;2023-07-29T02:31:25;17.30;99.90
52725;DHT22;38621;52.830;6.914;2023-07-29T02:33:51;17.20;99.90
52725;DHT22;38621;52.830;6.914;2023-07-29T02:36:18;17.20;99.90
52725;DHT22;38621;52.830;6.914;2023-07-29T02:38:44;17.20;99.90
52725;DHT22;38621;52.830;6.914;2023-07-29T02:41:10;17.20;99.90
52725;DHT22;38621;52.830;6.914;2023-07-29T02:43:37;17.30;99.90
52725;DHT22;38621;52.830;6.914;2023-07-29T02:46:03;17.20;99.90
52725;DHT22;38621;52.830;6.914;2023-07-29T02:48:29;17.30;99.90
52725;DHT22;38621;52.830;6.914;2023-07-29T02:50:55;17.20;99.90
52725;DHT22;38621;52.830;6.914;2023-07-29T02:53:24;17.20;99.90
52725;DHT22;38621;52.830;6.914;2023-07-29T02:55:50;17.10;99.90
52725;DHT22;38621;52.830;6.914;2023-07-29T02:58:16;17.10;99.90
52725;DHT22;38621;52.830;6.914;2023-07-29T03:00:42;17.00;99.90
52725;DHT22;38621;52.830;6.914;2023-07-29T03:03:09;17.00;99.90
52725;DHT22;38621;52.830;6.914;2023-07-29T03:05:35;16.90;99.90
52725;DHT22;38621;52.830;6.914;2023-07-29T03:08:01;16.90;99.90
52725;DHT22;38621;52.830;6.914;2023-07-29T03:10:27;16.80;99.90
52725;DHT22;38621;52.830;6.914;2023-07-29T03:12:56;16.80;99.90
52725;DHT22;38621;52.830;6.914;2023-07-29T03:15:25;16.80;99.90
52725;DHT22;38621;52.830;6.914;2023-07-29T03:17:52;16.70;99.90
52725;DHT22;38621;52.830;6.914;2023-07-29T03:20:19;16.70;99.90
52725;DHT22;38621;52.830;6.914;2023-07-29T03:22:45;16.70;99.90
52725;DHT22;38621;52.830;6.914;2023-07-29T03:25:11;16.70;99.90
52725;DHT22;38621;52.830;6.914;2023-07-29T03:27:36;16.70;99.90
52725;DHT22;38621;52.830;6.914;2023-07-29T03:30:06;16.70;99.90
52725;DHT22;38621;52.830;6.914;2023-07-29T03:32:32;16.60;99.90
52725;DHT22;38621;52.830;6.914;2023-07-29T03:34:58;16.60;99.90
52725;DHT22;38621;52.830;6.914;2023-07-29T03:37:24;16.60;99.90
52725;DHT22;38621;52.830;6.914;2023-07-29T03:39:50;16.50;99.90
52725;DHT22;38621;52.830;6.914;2023-07-29T03:42:17;16.50;99.90
52725;DHT22;38621;52.830;6.914;2023-07-29T03:44:43;16.50;99.90
52725;DHT22;38621;52.830;6.914;2023-07-29T03:47:09;16.40;99.90
52725;DHT22;38621;52.830;6.914;2023-07-29T03:49:34;16.40;99.90
52725;DHT22;38621;52.830;6.914;2023-07-29T03:52:00;16.30;99.90
52725;DHT22;38621;52.830;6.914;2023-07-29T03:54:26;16.30;99.90
52725;DHT22;38621;52.830;6.914;2023-07-29T03:56:51;16.30;99.90
52725;DHT22;38621;52.830;6.914;2023-07-29T03:59:17;16.30;99.90
52725;DHT22;38621;52.830;6.914;2023-07-29T04:01:43;16.20;99.90
52725;DHT22;38621;52.830;6.914;2023-07-29T04:04:09;16.20;99.90
52725;DHT22;38621;52.830;6.914;2023-07-29T04:06:35;16.10;99.90
52725;DHT22;38621;52.830;6.914;2023-07-29T04:09:00;16.10;99.90
52725;DHT22;38621;52.830;6.914;2023-07-29T04:11:26;16.00;99.90
52725;DHT22;38621;52.830;6.914;2023-07-29T04:13:52;16.00;99.90
52725;DHT22;38621;52.830;6.914;2023-07-29T04:16:17;16.10;99.90
52725;DHT22;38621;52.830;6.914;2023-07-29T04:18:43;16.10;99.90
52725;DHT22;38621;52.830;6.914;2023-07-29T04:21:09;16.20;99.90
52725;DHT22;38621;52.830;6.914;2023-07-29T04:23:34;16.20;99.90
52725;DHT22;38621;52.830;6.914;2023-07-29T04:26:00;16.20;99.90
52725;DHT22;38621;52.830;6.914;2023-07-29T04:28:26;16.30;99.90
52725;DHT22;38621;52.830;6.914;2023-07-29T04:30:52;16.30;99.90
52725;DHT22;38621;52.830;6.914;2023-07-29T04:33:17;16.30;99.90
52725;DHT22;38621;52.830;6.914;2023-07-29T04:35:43;16.30;99.90
52725;DHT22;38621;52.830;6.914;2023-07-29T04:38:09;16.30;99.90
52725;DHT22;38621;52.830;6.914;2023-07-29T04:40:35;16.40;99.90
52725;DHT22;38621;52.830;6.914;2023-07-29T04:43:01;16.40;99.90
52725;DHT22;38621;52.830;6.914;2023-07-29T04:45:30;16.40;99.90
52725;DHT22;38621;52.830;6.914;2023-07-29T04:47:57;16.50;99.90
52725;DHT22;38621;52.830;6.914;2023-07-29T04:50:23;16.50;99.90
52725;DHT22;38621;52.830;6.914;2023-07-29T04:52:49;16.50;99.90
52725;DHT22;38621;52.830;6.914;2023-07-29T04:55:14;16.50;99.90
52725;DHT22;38621;52.830;6.914;2023-07-29T04:57:40;16.50;99.90
52725;DHT22;38621;52.830;6.914;2023-07-29T05:00:06;16.60;99.90
52725;DHT22;38621;52.830;6.914;2023-07-29T05:02:32;16.50;99.90
52725;DHT22;38621;52.830;6.914;2023-07-29T05:04:58;16.50;99.90
52725;DHT22;38621;52.830;6.914;2023-07-29T05:07:23;16.50;99.90
52725;DHT22;38621;52.830;6.914;2023-07-29T05:09:49;16.50;99.90
52725;DHT22;38621;52.830;6.914;2023-07-29T05:12:15;16.60;99.90
52725;DHT22;38621;52.830;6.914;2023-07-29T05:14:41;16.60;99.90
52725;DHT22;38621;52.830;6.914;2023-07-29T05:17:07;16.60;99.90
52725;DHT22;38621;52.830;6.914;2023-07-29T05:19:32;16.60;99.90
52725;DHT22;38621;52.830;6.914;2023-07-29T05:21:58;16.60;99.90
52725;DHT22;38621;52.830;6.914;2023-07-29T05:24:24;16.60;99.90
52725;DHT22;38621;52.830;6.914;2023-07-29T05:26:49;16.60;99.90
52725;DHT22;38621;52.830;6.914;2023-07-29T05:29:15;16.70;99.90
52725;DHT22;38621;52.830;6.914;2023-07-29T05:31:41;16.70;99.90
52725;DHT22;38621;52.830;6.914;2023-07-29T05:34:07;16.70;99.90
52725;DHT22;38621;52.830;6.914;2023-07-29T05:36:32;16.70;99.90
52725;DHT22;38621;52.830;6.914;2023-07-29T05:38:58;16.80;99.90
52725;DHT22;38621;52.830;6.914;2023-07-29T05:41:24;16.80;99.90
52725;DHT22;38621;52.830;6.914;2023-07-29T05:43:51;16.90;99.90
52725;DHT22;38621;52.830;6.914;2023-07-29T05:46:17;16.90;99.90
52725;DHT22;38621;52.830;6.914;2023-07-29T05:48:42;17.00;99.90
52725;DHT22;38621;52.830;6.914;2023-07-29T05:51:08;17.00;99.90
52725;DHT22;38621;52.830;6.914;2023-07-29T05:53:34;17.00;99.90
52725;DHT22;38621;52.830;6.914;2023-07-29T05:55:59;17.10;99.90
52725;DHT22;38621;52.830;6.914;2023-07-29T05:58:25;17.10;99.90
52725;DHT22;38621;52.830;6.914;2023-07-29T06:00:51;17.10;99.90
52725;DHT22;38621;52.830;6.914;2023-07-29T06:03:17;17.10;99.90
52725;DHT22;38621;52.830;6.914;2023-07-29T06:05:42;17.20;99.90
52725;DHT22;38621;52.830;6.914;2023-07-29T06:08:08;17.20;99.90
52725;DHT22;38621;52.830;6.914;2023-07-29T06:10:34;17.20;99.90
52725;DHT22;38621;52.830;6.914;2023-07-29T06:13:00;17.20;99.90
52725;DHT22;38621;52.830;6.914;2023-07-29T06:15:25;17.20;99.90
52725;DHT22;38621;52.830;6.914;2023-07-29T06:17:51;17.30;99.90
52725;DHT22;38621;52.830;6.914;2023-07-29T06:20:17;17.30;99.90
52725;DHT22;38621;52.830;6.914;2023-07-29T06:22:43;17.30;99.90
52725;DHT22;38621;52.830;6.914;2023-07-29T06:25:08;17.30;99.90
52725;DHT22;38621;52.830;6.914;2023-07-29T06:27:34;17.50;99.90
52725;DHT22;38621;52.830;6.914;2023-07-29T06:30:00;17.50;99.90
52725;DHT22;38621;52.830;6.914;2023-07-29T06:32:26;17.60;99.90
52725;DHT22;38621;52.830;6.914;2023-07-29T06:34:52;17.60;99.90
52725;DHT22;38621;52.830;6.914;2023-07-29T06:37:20;17.60;99.90
52725;DHT22;38621;52.830;6.914;2023-07-29T06:39:45;17.70;99.90
52725;DHT22;38621;52.830;6.914;2023-07-29T06:42:11;17.70;99.90
52725;DHT22;38621;52.830;6.914;2023-07-29T06:44:37;17.80;99.90
52725;DHT22;38621;52.830;6.914;2023-07-29T06:47:03;17.80;99.90
52725;DHT22;38621;52.830;6.914;2023-07-29T06:49:28;17.90;99.90
52725;DHT22;38621;52.830;6.914;2023-07-29T06:51:54;17.90;99.90
52725;DHT22;38621;52.830;6.914;2023-07-29T06:54:24;17.90;99.90
52725;DHT22;38621;52.830;6.914;2023-07-29T06:56:51;17.90;99.90
52725;DHT22;38621;52.830;6.914;2023-07-29T06:59:17;17.90;99.90
52725;DHT22;38621;52.830;6.914;2023-07-29T07:01:43;18.00;99.90
52725;DHT22;38621;52.830;6.914;2023-07-29T07:04:09;18.10;99.90
52725;DHT22;38621;52.830;6.914;2023-07-29T07:06:35;18.10;99.90
52725;DHT22;38621;52.830;6.914;2023-07-29T07:09:00;18.20;99.90
52725;DHT22;38621;52.830;6.914;2023-07-29T07:11:26;18.20;99.90
52725;DHT22;38621;52.830;6.914;2023-07-29T07:13:52;18.20;99.90
52725;DHT22;38621;52.830;6.914;2023-07-29T07:16:17;18.20;99.90
52725;DHT22;38621;52.830;6.914;2023-07-29T07:18:43;18.20;99.90
52725;DHT22;38621;52.830;6.914;2023-07-29T07:21:09;18.30;99.90
52725;DHT22;38621;52.830;6.914;2023-07-29T07:23:35;18.40;99.90
52725;DHT22;38621;52.830;6.914;2023-07-29T07:26:00;18.40;99.90
52725;DHT22;38621;52.830;6.914;2023-07-29T07:28:26;18.40;99.90
52725;DHT22;38621;52.830;6.914;2023-07-29T07:30:52;18.30;99.90
52725;DHT22;38621;52.830;6.914;2023-07-29T07:33:17;18.20;99.90
52725;DHT22;38621;52.830;6.914;2023-07-29T07:35:43;18.30;99.90
52725;DHT22;38621;52.830;6.914;2023-07-29T07:38:09;18.40;99.90
52725;DHT22;38621;52.830;6.914;2023-07-29T07:40:35;18.40;99.90
52725;DHT22;38621;52.830;6.914;2023-07-29T07:43:01;18.50;99.90
52725;DHT22;38621;52.830;6.914;2023-07-29T07:45:27;18.50;99.90
52725;DHT22;38621;52.830;6.914;2023-07-29T07:47:53;18.60;99.90
52725;DHT22;38621;52.830;6.914;2023-07-29T07:50:19;18.70;99.90
52725;DHT22;38621;52.830;6.914;2023-07-29T07:52:45;18.80;99.90
52725;DHT22;38621;52.830;6.914;2023-07-29T07:55:11;18.90;99.90
52725;DHT22;38621;52.830;6.914;2023-07-29T07:57:37;19.00;99.90
52725;DHT22;38621;52.830;6.914;2023-07-29T08:00:03;19.20;99.90
52725;DHT22;38621;52.830;6.914;2023-07-29T08:02:30;19.30;99.90
52725;DHT22;38621;52.830;6.914;2023-07-29T08:04:55;19.30;99.90
52725;DHT22;38621;52.830;6.914;2023-07-29T08:07:21;19.40;99.90
52725;DHT22;38621;52.830;6.914;2023-07-29T08:09:47;19.50;99.90
52725;DHT22;38621;52.830;6.914;2023-07-29T08:12:13;19.40;99.90
52725;DHT22;38621;52.830;6.914;2023-07-29T08:14:38;19.40;99.90
52725;DHT22;38621;52.830;6.914;2023-07-29T08:17:04;19.40;99.90
52725;DHT22;38621;52.830;6.914;2023-07-29T08:19:30;19.50;99.90
52725;DHT22;38621;52.830;6.914;2023-07-29T08:21:55;19.60;99.90
52725;DHT22;38621;52.830;6.914;2023-07-29T08:24:21;19.60;99.90
52725;DHT22;38621;52.830;6.914;2023-07-29T08:26:47;19.80;99.90
52725;DHT22;38621;52.830;6.914;2023-07-29T08:29:13;19.70;99.90
52725;DHT22;38621;52.830;6.914;2023-07-29T08:31:39;19.70;99.90
52725;DHT22;38621;52.830;6.914;2023-07-29T08:34:04;19.80;99.90
52725;DHT22;38621;52.830;6.914;2023-07-29T08:36:30;20.00;99.90
52725;DHT22;38621;52.830;6.914;2023-07-29T08:38:56;19.80;99.90
52725;DHT22;38621;52.830;6.914;2023-07-29T08:41:26;19.60;99.90
52725;DHT22;38621;52.830;6.914;2023-07-29T08:44:01;19.50;99.90
52725;DHT22;38621;52.830;6.914;2023-07-29T08:46:32;19.70;99.90
52725;DHT22;38621;52.830;6.914;2023-07-29T08:48:59;19.90;99.90
52725;DHT22;38621;52.830;6.914;2023-07-29T08:51:27;19.90;99.90
52725;DHT22;38621;52.830;6.914;2023-07-29T08:53:53;19.90;99.90
52725;DHT22;38621;52.830;6.914;2023-07-29T08:56:19;19.80;99.90
52725;DHT22;38621;52.830;6.914;2023-07-29T08:58:45;19.70;99.90
52725;DHT22;38621;52.830;6.914;2023-07-29T09:01:12;19.70;99.90
52725;DHT22;38621;52.830;6.914;2023-07-29T09:03:37;19.70;99.90
52725;DHT22;38621;52.830;6.914;2023-07-29T09:06:04;19.80;99.90
52725;DHT22;38621;52.830;6.914;2023-07-29T09:08:31;19.80;99.90
52725;DHT22;38621;52.830;6.914;2023-07-29T09:10:57;19.90;99.90
52725;DHT22;38621;52.830;6.914;2023-07-29T09:13:23;20.10;99.90
52725;DHT22;38621;52.830;6.914;2023-07-29T09:15:48;20.30;99.90
52725;DHT22;38621;52.830;6.914;2023-07-29T09:18:19;20.40;99.90
52725;DHT22;38621;52.830;6.914;2023-07-29T09:20:49;20.50;99.90
52725;DHT22;38621;52.830;6.914;2023-07-29T09:23:15;20.40;99.90
52725;DHT22;38621;52.830;6.914;2023-07-29T09:25:41;20.50;99.90
52725;DHT22;38621;52.830;6.914;2023-07-29T09:28:09;20.60;99.90
52725;DHT22;38621;52.830;6.914;2023-07-29T09:30:39;20.90;99.90
52725;DHT22;38621;52.830;6.914;2023-07-29T09:33:06;21.10;99.90
52725;DHT22;38621;52.830;6.914;2023-07-29T09:35:33;21.10;99.90
52725;DHT22;38621;52.830;6.914;2023-07-29T09:38:00;21.20;99.90
52725;DHT22;38621;52.830;6.914;2023-07-29T09:40:25;21.30;99.90
52725;DHT22;38621;52.830;6.914;2023-07-29T09:42:55;21.40;99.90
52725;DHT22;38621;52.830;6.914;2023-07-29T09:45:22;21.50;99.90
52725;DHT22;38621;52.830;6.914;2023-07-29T09:47:49;21.60;99.90
52725;DHT22;38621;52.830;6.914;2023-07-29T09:50:15;21.80;99.90
52725;DHT22;38621;52.830;6.914;2023-07-29T09:52:41;21.70;99.90
52725;DHT22;38621;52.830;6.914;2023-07-29T09:55:09;21.50;99.90
52725;DHT22;38621;52.830;6.914;2023-07-29T09:57:35;21.30;99.90
52725;DHT22;38621;52.830;6.914;2023-07-29T10:00:04;21.30;99.90
52725;DHT22;38621;52.830;6.914;2023-07-29T10:02:40;21.30;99.90
52725;DHT22;38621;52.830;6.914;2023-07-29T10:05:07;21.40;99.90
52725;DHT22;38621;52.830;6.914;2023-07-29T10:07:34;21.20;99.90
52725;DHT22;38621;52.830;6.914;2023-07-29T10:10:02;21.00;99.90
52725;DHT22;38621;52.830;6.914;2023-07-29T10:12:29;21.10;99.90
52725;DHT22;38621;52.830;6.914;2023-07-29T10:14:59;21.40;99.90
52725;DHT22;38621;52.830;6.914;2023-07-29T10:17:26;21.60;99.90
52725;DHT22;38621;52.830;6.914;2023-07-29T10:19:52;21.60;99.90
52725;DHT22;38621;52.830;6.914;2023-07-29T10:22:20;21.60;99.90
52725;DHT22;38621;52.830;6.914;2023-07-29T10:24:48;21.80;99.90
52725;DHT22;38621;52.830;6.914;2023-07-29T10:27:17;22.00;99.90
52725;DHT22;38621;52.830;6.914;2023-07-29T10:29:44;22.00;99.90
52725;DHT22;38621;52.830;6.914;2023-07-29T10:32:11;22.00;99.90
52725;DHT22;38621;52.830;6.914;2023-07-29T10:34:37;22.00;99.90
52725;DHT22;38621;52.830;6.914;2023-07-29T10:37:04;22.10;99.90
52725;DHT22;38621;52.830;6.914;2023-07-29T10:39:40;22.10;99.90
52725;DHT22;38621;52.830;6.914;2023-07-29T10:42:16;22.00;99.90
52725;DHT22;38621;52.830;6.914;2023-07-29T10:44:54;21.90;99.90
52725;DHT22;38621;52.830;6.914;2023-07-29T10:49:52;21.60;99.90
52725;DHT22;38621;52.830;6.914;2023-07-29T10:55:01;21.90;99.90
52725;DHT22;38621;52.830;6.914;2023-07-29T10:57:45;21.90;99.90
52725;DHT22;38621;52.830;6.914;2023-07-29T11:00:15;22.20;99.90
52725;DHT22;38621;52.830;6.914;2023-07-29T11:02:41;22.30;99.90
52725;DHT22;38621;52.830;6.914;2023-07-29T11:05:16;22.40;99.90
52725;DHT22;38621;52.830;6.914;2023-07-29T11:07:46;22.20;99.90
52725;DHT22;38621;52.830;6.914;2023-07-29T11:10:13;22.00;99.90
52725;DHT22;38621;52.830;6.914;2023-07-29T11:12:43;21.90;99.90
52725;DHT22;38621;52.830;6.914;2023-07-29T11:20:29;22.40;99.90
52725;DHT22;38621;52.830;6.914;2023-07-29T11:22:57;22.30;99.90
52725;DHT22;38621;52.830;6.914;2023-07-29T11:25:24;22.20;99.90
52725;DHT22;38621;52.830;6.914;2023-07-29T11:27:56;21.90;99.90
52725;DHT22;38621;52.830;6.914;2023-07-29T11:30:22;21.60;99.90
52725;DHT22;38621;52.830;6.914;2023-07-29T11:32:57;21.20;99.90
52725;DHT22;38621;52.830;6.914;2023-07-29T11:35:23;21.10;99.90
52725;DHT22;38621;52.830;6.914;2023-07-29T11:37:51;21.30;99.90
52725;DHT22;38621;52.830;6.914;2023-07-29T11:40:18;21.70;99.90
52725;DHT22;38621;52.830;6.914;2023-07-29T11:42:45;21.70;99.90
52725;DHT22;38621;52.830;6.914;2023-07-29T11:45:12;21.60;99.90
52725;DHT22;38621;52.830;6.914;2023-07-29T11:47:38;21.40;99.90
52725;DHT22;38621;52.830;6.914;2023-07-29T11:50:06;21.20;99.90
52725;DHT22;38621;52.830;6.914;2023-07-29T11:52:33;21.30;99.90
52725;DHT22;38621;52.830;6.914;2023-07-29T11:55:00;21.50;99.90
52725;DHT22;38621;52.830;6.914;2023-07-29T11:57:26;21.40;99.90
52725;DHT22;38621;52.830;6.914;2023-07-29T11:59:52;21.30;99.90
52725;DHT22;38621;52.830;6.914;2023-07-29T12:02:20;21.10;99.90
52725;DHT22;38621;52.830;6.914;2023-07-29T12:04:46;21.00;99.90
52725;DHT22;38621;52.830;6.914;2023-07-29T12:07:13;20.90;99.90
52725;DHT22;38621;52.830;6.914;2023-07-29T12:09:41;20.80;99.90
52725;DHT22;38621;52.830;6.914;2023-07-29T12:12:07;20.90;99.90
52725;DHT22;38621;52.830;6.914;2023-07-29T12:14:34;21.00;99.90
52725;DHT22;38621;52.830;6.914;2023-07-29T12:17:02;21.10;99.90
52725;DHT22;38621;52.830;6.914;2023-07-29T12:19:35;21.20;99.90
52725;DHT22;38621;52.830;6.914;2023-07-29T12:22:02;21.60;99.90
52725;DHT22;38621;52.830;6.914;2023-07-29T12:24:32;21.70;99.90
52725;DHT22;38621;52.830;6.914;2023-07-29T12:26:58;21.90;99.90
52725;DHT22;38621;52.830;6.914;2023-07-29T12:29:25;21.90;99.90
52725;DHT22;38621;52.830;6.914;2023-07-29T12:32:01;21.90;99.90
52725;DHT22;38621;52.830;6.914;2023-07-29T12:34:29;22.00;99.90
52725;DHT22;38621;52.830;6.914;2023-07-29T12:36:56;22.00;99.90
52725;DHT22;38621;52.830;6.914;2023-07-29T12:39:28;22.20;99.90
52725;DHT22;38621;52.830;6.914;2023-07-29T12:41:59;22.40;99.90
52725;DHT22;38621;52.830;6.914;2023-07-29T12:44:30;22.50;99.90
52725;DHT22;38621;52.830;6.914;2023-07-29T12:46:56;22.50;99.90
52725;DHT22;38621;52.830;6.914;2023-07-29T12:49:22;22.50;99.90
52725;DHT22;38621;52.830;6.914;2023-07-29T12:51:48;22.40;99.90
52725;DHT22;38621;52.830;6.914;2023-07-29T12:54:14;22.40;99.90
52725;DHT22;38621;52.830;6.914;2023-07-29T12:56:39;22.40;99.90
52725;DHT22;38621;52.830;6.914;2023-07-29T12:59:06;22.30;99.90
52725;DHT22;38621;52.830;6.914;2023-07-29T13:01:31;22.10;99.90
52725;DHT22;38621;52.830;6.914;2023-07-29T13:03:57;22.00;99.90
52725;DHT22;38621;52.830;6.914;2023-07-29T13:06:23;22.10;99.90
52725;DHT22;38621;52.830;6.914;2023-07-29T13:08:49;22.20;99.90
52725;DHT22;38621;52.830;6.914;2023-07-29T13:11:16;22.30;99.90
52725;DHT22;38621;52.830;6.914;2023-07-29T13:13:42;22.20;99.90
52725;DHT22;38621;52.830;6.914;2023-07-29T13:16:08;22.00;99.90
52725;DHT22;38621;52.830;6.914;2023-07-29T13:18:34;21.80;99.90
52725;DHT22;38621;52.830;6.914;2023-07-29T13:21:00;21.70;99.90
52725;DHT22;38621;52.830;6.914;2023-07-29T13:23:26;21.70;99.90
52725;DHT22;38621;52.830;6.914;2023-07-29T13:25:52;21.80;99.90
52725;DHT22;38621;52.830;6.914;2023-07-29T13:28:18;21.90;99.90
52725;DHT22;38621;52.830;6.914;2023-07-29T13:30:44;22.10;99.90
52725;DHT22;38621;52.830;6.914;2023-07-29T13:33:10;22.30;99.90
52725;DHT22;38621;52.830;6.914;2023-07-29T13:35:36;22.50;99.90
52725;DHT22;38621;52.830;6.914;2023-07-29T13:38:02;22.60;99.90
52725;DHT22;38621;52.830;6.914;2023-07-29T13:40:28;22.70;99.90
52725;DHT22;38621;52.830;6.914;2023-07-29T13:42:54;22.70;99.90
52725;DHT22;38621;52.830;6.914;2023-07-29T13:45:20;22.60;99.90
52725;DHT22;38621;52.830;6.914;2023-07-29T13:47:46;22.40;99.90
52725;DHT22;38621;52.830;6.914;2023-07-29T13:50:12;22.10;99.90
52725;DHT22;38621;52.830;6.914;2023-07-29T13:52:38;21.70;99.90
52725;DHT22;38621;52.830;6.914;2023-07-29T13:55:05;21.40;99.90
52725;DHT22;38621;52.830;6.914;2023-07-29T13:57:31;21.20;99.90
52725;DHT22;38621;52.830;6.914;2023-07-29T13:59:57;20.90;99.90
52725;DHT22;38621;52.830;6.914;2023-07-29T14:02:23;20.80;99.90
52725;DHT22;38621;52.830;6.914;2023-07-29T14:04:49;20.50;99.90
52725;DHT22;38621;52.830;6.914;2023-07-29T14:07:14;20.20;99.90
52725;DHT22;38621;52.830;6.914;2023-07-29T14:09:40;20.00;99.90
52725;DHT22;38621;52.830;6.914;2023-07-29T14:12:08;19.70;99.90
52725;DHT22;38621;52.830;6.914;2023-07-29T14:14:38;19.50;99.90
52725;DHT22;38621;52.830;6.914;2023-07-29T14:17:04;19.20;99.90
52725;DHT22;38621;52.830;6.914;2023-07-29T14:19:31;18.90;99.90
52725;DHT22;38621;52.830;6.914;2023-07-29T14:21:58;18.60;99.90
52725;DHT22;38621;52.830;6.914;2023-07-29T14:24:23;18.50;99.90
52725;DHT22;38621;52.830;6.914;2023-07-29T14:26:49;18.40;99.90
52725;DHT22;38621;52.830;6.914;2023-07-29T14:29:15;18.40;99.90
52725;DHT22;38621;52.830;6.914;2023-07-29T14:31:40;18.40;99.90
52725;DHT22;38621;52.830;6.914;2023-07-29T14:34:06;18.30;99.90
52725;DHT22;38621;52.830;6.914;2023-07-29T14:36:32;18.30;99.90
52725;DHT22;38621;52.830;6.914;2023-07-29T14:38:57;18.20;99.90
52725;DHT22;38621;52.830;6.914;2023-07-29T14:41:23;18.20;99.90
52725;DHT22;38621;52.830;6.914;2023-07-29T14:43:49;18.20;99.90
52725;DHT22;38621;52.830;6.914;2023-07-29T14:46:15;18.20;99.90
52725;DHT22;38621;52.830;6.914;2023-07-29T14:48:40;18.40;99.90
52725;DHT22;38621;52.830;6.914;2023-07-29T14:51:06;18.40;99.90
52725;DHT22;38621;52.830;6.914;2023-07-29T14:53:32;18.40;99.90
52725;DHT22;38621;52.830;6.914;2023-07-29T14:55:57;18.40;99.90
52725;DHT22;38621;52.830;6.914;2023-07-29T14:58:23;18.50;99.90
52725;DHT22;38621;52.830;6.914;2023-07-29T15:00:54;18.50;99.90
52725;DHT22;38621;52.830;6.914;2023-07-29T15:03:19;18.50;99.90
52725;DHT22;38621;52.830;6.914;2023-07-29T15:05:45;18.50;99.90
52725;DHT22;38621;52.830;6.914;2023-07-29T15:08:11;18.40;99.90
52725;DHT22;38621;52.830;6.914;2023-07-29T15:10:36;18.30;99.90
52725;DHT22;38621;52.830;6.914;2023-07-29T15:13:02;18.10;99.90
52725;DHT22;38621;52.830;6.914;2023-07-29T15:15:28;17.80;99.90
52725;DHT22;38621;52.830;6.914;2023-07-29T15:17:54;17.70;99.90
52725;DHT22;38621;52.830;6.914;2023-07-29T15:20:19;17.60;99.90
52725;DHT22;38621;52.830;6.914;2023-07-29T15:22:45;17.70;99.90
52725;DHT22;38621;52.830;6.914;2023-07-29T15:25:11;17.90;99.90
52725;DHT22;38621;52.830;6.914;2023-07-29T15:27:37;18.50;99.90
52725;DHT22;38621;52.830;6.914;2023-07-29T15:30:08;19.10;99.90
52725;DHT22;38621;52.830;6.914;2023-07-29T15:32:33;19.40;99.90
52725;DHT22;38621;52.830;6.914;2023-07-29T15:34:59;20.00;99.90
52725;DHT22;38621;52.830;6.914;2023-07-29T15:37:28;20.60;99.90
52725;DHT22;38621;52.830;6.914;2023-07-29T15:39:53;21.10;99.90
52725;DHT22;38621;52.830;6.914;2023-07-29T15:42:19;21.70;99.90